createdAt,value
2017-10-21T00:00:07.222Z,98131.80
2017-10-21T00:02:34.744Z,98131.46
2017-10-21T00:05:02.253Z,98139.58
2017-10-21T00:07:29.747Z,98135.61
2017-10-21T00:09:57.259Z,98133.84
2017-10-21T00:12:36.521Z,98138.63
2017-10-21T00:15:04.047Z,98133.71
2017-10-21T00:17:31.559Z,98129.11
2017-10-21T00:19:59.371Z,98127.13
2017-10-21T00:22:28.747Z,98125.29
2017-10-21T00:24:56.280Z,98126.09
2017-10-21T00:27:23.807Z,98116.38
2017-10-21T00:29:51.320Z,98119.64
2017-10-21T00:32:18.838Z,98117.39
2017-10-21T00:34:46.375Z,98122.81
2017-10-21T00:37:13.903Z,98117.85
2017-10-21T00:39:41.419Z,98113.92
2017-10-21T00:42:08.974Z,98101.73
2017-10-21T00:44:36.602Z,98117.30
2017-10-21T00:47:04.166Z,98115.59
2017-10-21T00:49:31.698Z,98109.86
2017-10-21T00:51:59.224Z,98105.13
2017-10-21T00:54:26.740Z,98111.90
2017-10-21T00:56:54.246Z,98109.34
2017-10-21T00:59:21.759Z,98106.03
2017-10-21T01:01:49.264Z,98101.06
2017-10-21T01:04:16.904Z,98106.59
2017-10-21T01:06:54.845Z,98095.62
2017-10-21T01:09:22.418Z,98093.39
2017-10-21T01:11:49.979Z,98089.81
2017-10-21T01:14:17.483Z,98093.67
2017-10-21T01:16:44.991Z,98091.78
2017-10-21T01:19:12.530Z,98101.17
2017-10-21T01:21:40.861Z,98090.98
2017-10-21T01:24:08.381Z,98089.70
2017-10-21T01:26:35.901Z,98093.96
2017-10-21T01:29:03.503Z,98086.34
2017-10-21T01:31:31.043Z,98089.33
2017-10-21T01:34:00.130Z,98089.70
2017-10-21T01:36:27.645Z,98098.45
2017-10-21T01:38:55.187Z,98094.43
2017-10-21T01:41:22.692Z,98091.28
2017-10-21T01:43:50.222Z,98089.65
2017-10-21T01:46:17.719Z,98089.52
2017-10-21T01:48:45.247Z,98094.02
2017-10-21T01:51:12.865Z,98089.06
2017-10-21T01:53:40.389Z,98089.85
2017-10-21T02:08:00.723Z,98089.70
2017-10-21T02:10:28.351Z,98085.50
2017-10-21T02:12:55.885Z,98090.14
2017-10-21T02:15:23.407Z,98097.09
2017-10-21T02:17:50.916Z,98101.38
2017-10-21T02:20:18.435Z,98106.03
2017-10-21T02:34:49.196Z,98092.98
2017-10-21T02:37:17.394Z,98090.86
2017-10-21T02:39:44.907Z,98088.44
2017-10-21T02:42:12.422Z,98088.55
2017-10-21T02:44:40.043Z,98084.59
2017-10-21T02:47:07.565Z,98085.53
2017-10-21T02:49:35.096Z,98089.18
2017-10-21T02:52:02.633Z,98087.98
2017-10-21T02:54:30.152Z,98089.74
2017-10-21T02:56:57.668Z,98092.60
2017-10-21T02:59:25.211Z,98094.16
2017-10-21T03:01:52.748Z,98091.77
2017-10-21T03:04:20.261Z,98093.20
2017-10-21T03:06:47.776Z,98089.39
2017-10-21T03:09:15.300Z,98088.97
2017-10-21T03:11:42.814Z,98080.27
2017-10-21T03:14:10.344Z,98079.82
2017-10-21T03:16:37.858Z,98069.41
2017-10-21T03:19:05.454Z,98074.86
2017-10-21T03:21:33.013Z,98084.39
2017-10-21T03:24:00.525Z,98084.67
2017-10-21T03:26:28.046Z,98079.84
2017-10-21T03:28:55.567Z,98076.70
2017-10-21T03:31:23.060Z,98072.95
2017-10-21T03:33:50.559Z,98077.81
2017-10-21T03:47:50.821Z,98077.24
2017-10-21T03:50:18.334Z,98071.67
2017-10-21T03:52:45.843Z,98071.38
2017-10-21T03:55:13.343Z,98074.94
2017-10-21T03:57:40.879Z,98076.86
2017-10-21T04:00:08.387Z,98083.63
2017-10-21T04:02:35.900Z,98079.91
2017-10-21T04:05:03.417Z,98080.35
2017-10-21T04:07:30.926Z,98084.81
2017-10-21T04:09:58.430Z,98078.89
2017-10-21T04:12:25.951Z,98088.44
2017-10-21T04:14:53.459Z,98077.08
2017-10-21T04:17:20.992Z,98085.66
2017-10-21T04:19:48.496Z,98081.13
2017-10-21T04:22:16.042Z,98077.33
2017-10-21T04:24:43.548Z,98086.27
2017-10-21T04:27:11.068Z,98082.13
2017-10-21T04:29:38.584Z,98083.19
2017-10-21T04:32:06.107Z,98092.61
2017-10-21T04:34:33.620Z,98089.52
2017-10-21T04:37:01.130Z,98086.20
2017-10-21T04:39:28.639Z,98092.66
2017-10-21T04:44:53.313Z,98085.95
2017-10-21T04:47:20.820Z,98079.38
2017-10-21T04:49:48.341Z,98079.22
2017-10-21T04:52:15.851Z,98080.30
2017-10-21T04:54:43.377Z,98080.53
2017-10-21T04:57:10.883Z,98085.17
2017-10-21T04:59:38.399Z,98077.20
2017-10-21T05:02:05.912Z,98084.42
2017-10-21T05:07:29.680Z,98080.36
2017-10-21T05:09:57.180Z,98086.26
2017-10-21T05:12:24.691Z,98092.00
2017-10-21T05:14:52.204Z,98089.79
2017-10-21T05:17:19.751Z,98090.42
2017-10-21T05:19:47.307Z,98092.55
2017-10-21T05:22:15.653Z,98098.27
2017-10-21T05:24:43.161Z,98093.25
2017-10-21T05:27:10.685Z,98092.92
2017-10-21T05:29:38.224Z,98099.05
2017-10-21T05:32:05.750Z,98096.27
2017-10-21T05:34:33.299Z,98093.73
2017-10-21T05:37:01.138Z,98094.63
2017-10-21T05:39:28.655Z,98099.50
2017-10-21T05:41:56.174Z,98096.62
2017-10-21T05:44:23.695Z,98099.34
2017-10-21T05:46:51.214Z,98100.87
2017-10-21T05:49:18.746Z,98096.89
2017-10-21T05:51:46.271Z,98098.80
2017-10-21T05:54:13.805Z,98106.78
2017-10-21T05:56:41.317Z,98100.84
2017-10-21T05:59:08.824Z,98099.34
2017-10-21T06:01:36.336Z,98102.61
2017-10-21T06:04:03.848Z,98105.05
2017-10-21T06:18:04.216Z,98107.91
2017-10-21T06:20:31.724Z,98106.72
2017-10-21T06:22:59.233Z,98109.58
2017-10-21T06:25:26.752Z,98116.50
2017-10-21T06:27:54.277Z,98118.22
2017-10-21T06:30:21.790Z,98119.98
2017-10-21T06:32:49.328Z,98119.32
2017-10-21T06:35:16.858Z,98119.13
2017-10-21T06:37:44.378Z,98116.97
2017-10-21T06:40:11.895Z,98123.81
2017-10-21T06:42:39.396Z,98125.59
2017-10-21T06:45:07.013Z,98122.29
2017-10-21T06:47:34.546Z,98127.41
2017-10-21T06:50:02.059Z,98132.38
2017-10-21T06:52:29.586Z,98132.95
2017-10-21T06:54:57.120Z,98118.54
2017-10-21T06:57:24.634Z,98121.66
2017-10-21T06:59:52.148Z,98122.00
2017-10-21T07:02:19.661Z,98120.51
2017-10-21T07:04:47.198Z,98124.44
2017-10-21T07:07:14.703Z,98131.40
2017-10-21T07:09:42.229Z,98123.36
2017-10-21T07:12:09.745Z,98130.06
2017-10-21T07:14:37.276Z,98128.98
2017-10-21T07:17:04.816Z,98124.63
2017-10-21T07:19:32.366Z,98134.91
2017-10-21T07:21:59.895Z,98127.28
2017-10-21T07:24:27.429Z,98131.25
2017-10-21T07:26:54.953Z,98133.91
2017-10-21T07:29:22.560Z,98130.59
2017-10-21T07:31:50.093Z,98133.77
2017-10-21T07:34:26.774Z,98133.86
2017-10-21T07:36:54.278Z,98123.56
2017-10-21T07:39:21.823Z,98131.26
2017-10-21T07:41:49.342Z,98128.64
2017-10-21T07:44:16.850Z,98130.79
2017-10-21T07:46:44.368Z,98128.78
2017-10-21T07:49:11.942Z,98134.58
2017-10-21T07:51:39.498Z,98135.15
2017-10-21T07:54:07.008Z,98132.58
2017-10-21T07:56:34.539Z,98134.00
2017-10-21T07:59:02.078Z,98130.83
2017-10-21T08:01:29.604Z,98126.27
2017-10-21T08:03:57.659Z,98122.37
2017-10-21T08:06:28.143Z,98124.85
2017-10-21T08:08:55.682Z,98127.05
2017-10-21T08:11:23.208Z,98129.19
2017-10-21T08:13:50.719Z,98130.42
2017-10-21T08:16:28.547Z,98124.48
2017-10-21T08:18:56.163Z,98131.15
2017-10-21T08:21:23.693Z,98126.89
2017-10-21T08:23:51.271Z,98129.88
2017-10-21T08:26:18.901Z,98137.53
2017-10-21T08:28:46.417Z,98138.27
2017-10-21T08:31:13.984Z,98138.59
2017-10-21T08:33:41.492Z,98138.75
2017-10-21T08:36:09.001Z,98137.91
2017-10-21T08:38:36.519Z,98130.89
2017-10-21T08:41:04.049Z,98128.80
2017-10-21T08:43:31.567Z,98131.48
2017-10-21T08:45:59.085Z,98127.94
2017-10-21T08:48:26.711Z,98127.31
2017-10-21T08:50:54.258Z,98129.94
2017-10-21T08:53:21.789Z,98122.00
2017-10-21T08:55:49.340Z,98123.45
2017-10-21T08:58:16.853Z,98124.79
2017-10-21T09:00:44.408Z,98125.86
2017-10-21T09:03:11.924Z,98125.80
2017-10-21T09:05:39.469Z,98128.08
2017-10-21T09:08:06.992Z,98120.69
2017-10-21T09:10:34.491Z,98116.77
2017-10-21T09:13:01.999Z,98109.84
2017-10-21T09:15:29.538Z,98102.15
2017-10-21T09:17:57.162Z,98110.03
2017-10-21T09:20:24.671Z,98099.67
2017-10-21T09:22:52.257Z,98097.14
2017-10-21T09:25:19.764Z,98101.72
2017-10-21T09:27:47.297Z,98100.14
2017-10-21T09:30:14.814Z,98093.04
2017-10-21T09:32:42.457Z,98098.58
2017-10-21T09:35:09.962Z,98095.80
2017-10-21T09:37:37.496Z,98089.44
2017-10-21T09:40:05.039Z,98081.61
2017-10-21T09:42:32.564Z,98092.32
2017-10-21T09:45:00.083Z,98085.48
2017-10-21T09:50:23.808Z,98086.69
2017-10-21T09:52:51.336Z,98090.94
2017-10-21T09:55:18.890Z,98081.34
2017-10-21T09:57:46.396Z,98081.85
2017-10-21T10:00:23.822Z,98079.67
2017-10-21T10:03:07.108Z,98075.02
2017-10-21T10:05:34.669Z,98078.29
2017-10-21T10:08:02.199Z,98075.27
2017-10-21T10:10:29.712Z,98078.64
2017-10-21T10:12:57.225Z,98073.42
2017-10-21T10:15:24.743Z,98079.33
2017-10-21T10:17:52.276Z,98072.47
2017-10-21T10:20:36.512Z,98071.70
2017-10-21T10:23:04.021Z,98068.28
2017-10-21T10:25:31.570Z,98070.72
2017-10-21T10:27:59.084Z,98078.13
2017-10-21T10:36:36.539Z,98069.45
2017-10-21T10:46:30.043Z,98052.59
2017-10-21T10:48:57.560Z,98049.08
2017-10-21T10:51:25.088Z,98050.06
2017-10-21T10:53:52.610Z,98048.59
2017-10-21T10:56:20.112Z,98038.70
2017-10-21T10:58:47.653Z,98038.59
2017-10-21T11:01:15.162Z,98033.63
2017-10-21T11:03:42.668Z,98037.40
2017-10-21T11:06:10.223Z,98025.23
2017-10-21T11:08:37.729Z,98021.84
2017-10-21T11:11:05.239Z,98018.33
2017-10-21T11:13:32.760Z,98018.28
2017-10-21T11:33:16.984Z,97995.67
2017-10-21T11:36:06.417Z,97993.23
2017-10-21T11:41:37.328Z,97993.27
2017-10-21T11:44:04.827Z,97997.05
2017-10-21T11:46:32.338Z,97988.78
2017-10-21T11:49:00.700Z,97982.41
2017-10-21T11:51:43.141Z,97980.07
2017-10-21T11:54:10.652Z,97978.21
2017-10-21T11:56:39.042Z,97976.91
2017-10-21T11:59:06.551Z,97974.66
2017-10-21T12:01:34.063Z,97974.88
2017-10-21T12:04:01.575Z,97967.91
2017-10-21T12:06:29.080Z,97971.30
2017-10-21T12:08:56.592Z,97967.06
2017-10-21T12:11:24.209Z,97968.60
2017-10-21T12:13:52.705Z,97964.69
2017-10-21T12:16:20.215Z,97970.12
2017-10-21T12:18:47.729Z,97967.03
2017-10-21T12:21:15.261Z,97958.32
2017-10-21T12:23:42.783Z,97960.50
2017-10-21T12:26:17.263Z,97960.70
2017-10-21T12:28:47.611Z,97953.36
2017-10-21T12:31:15.122Z,97948.38
2017-10-21T12:33:42.658Z,97946.27
2017-10-21T12:36:10.183Z,97945.11
2017-10-21T12:38:37.703Z,97940.16
2017-10-21T12:41:05.198Z,97933.42
2017-10-21T12:43:32.730Z,97940.53
2017-10-21T12:46:00.261Z,97938.67
2017-10-21T12:48:27.820Z,97931.42
2017-10-21T12:50:55.331Z,97937.09
2017-10-21T12:53:22.846Z,97942.80
2017-10-21T12:55:57.975Z,97942.80
2017-10-21T12:58:26.451Z,97940.31
2017-10-21T13:00:53.971Z,97932.11
2017-10-21T13:03:21.492Z,97938.61
2017-10-21T13:05:48.996Z,97934.97
2017-10-21T13:08:17.227Z,97939.58
2017-10-21T13:10:44.765Z,97944.27
2017-10-21T13:13:12.287Z,97941.73
2017-10-21T13:18:36.803Z,97931.25
2017-10-21T13:21:04.339Z,97932.77
2017-10-21T13:23:31.845Z,97938.91
2017-10-21T13:25:59.375Z,97939.80
2017-10-21T13:28:26.963Z,97928.86
2017-10-21T13:30:54.492Z,97932.78
2017-10-21T13:33:22.003Z,97933.19
2017-10-21T13:35:49.529Z,97934.55
2017-10-21T13:38:17.045Z,97935.58
2017-10-21T13:40:44.580Z,97940.27
2017-10-21T13:46:08.406Z,97935.80
2017-10-21T13:48:35.925Z,97933.52
2017-10-21T13:51:03.435Z,97929.99
2017-10-21T13:53:30.955Z,97931.92
2017-10-21T13:55:58.511Z,97923.10
2017-10-21T13:58:26.052Z,97924.88
2017-10-21T14:00:53.548Z,97920.66
2017-10-21T14:03:21.060Z,97922.72
2017-10-21T14:05:48.654Z,97919.13
2017-10-21T14:08:16.148Z,97918.61
2017-10-21T14:10:43.683Z,97919.81
2017-10-21T14:13:11.187Z,97915.41
2017-10-21T14:15:38.724Z,97917.75
2017-10-21T14:18:06.305Z,97921.81
2017-10-21T14:20:33.833Z,97920.05
2017-10-21T14:23:01.372Z,97920.19
2017-10-21T14:25:28.909Z,97926.34
2017-10-21T14:27:56.446Z,97918.52
2017-10-21T14:30:24.003Z,97925.23
2017-10-21T14:32:51.531Z,97912.86
2017-10-21T14:35:19.052Z,97916.12
2017-10-21T14:37:46.568Z,97903.52
2017-10-21T14:43:10.306Z,97913.14
2017-10-21T14:45:38.318Z,97911.59
2017-10-21T14:48:06.484Z,97904.91
2017-10-21T14:50:34.003Z,97906.08
2017-10-21T14:53:01.541Z,97914.97
2017-10-21T14:55:29.063Z,97912.00
2017-10-21T14:57:56.580Z,97909.47
2017-10-21T15:00:24.193Z,97911.13
2017-10-21T15:02:51.714Z,97908.88
2017-10-21T15:05:19.255Z,97917.08
2017-10-21T15:07:46.819Z,97918.69
2017-10-21T15:10:14.336Z,97920.98
2017-10-21T15:12:41.870Z,97919.02
2017-10-21T15:15:09.406Z,97921.34
2017-10-21T15:17:36.950Z,97910.68
2017-10-21T15:20:04.496Z,97915.92
2017-10-21T15:22:32.072Z,97920.65
2017-10-21T15:24:59.598Z,97926.95
2017-10-21T15:27:27.106Z,97913.02
2017-10-21T15:29:54.622Z,97922.38
2017-10-21T15:32:22.146Z,97925.14
2017-10-21T15:34:49.664Z,97920.63
2017-10-21T15:37:17.225Z,97921.97
2017-10-21T15:39:44.747Z,97905.47
2017-10-21T15:42:12.244Z,97899.06
2017-10-21T15:44:40.666Z,97897.41
2017-10-21T15:47:08.172Z,97896.66
2017-10-21T15:49:35.706Z,97892.96
2017-10-21T15:52:13.148Z,97889.89
2017-10-21T15:54:40.976Z,97885.36
2017-10-21T15:57:08.476Z,97887.67
2017-10-21T15:59:36.022Z,97884.73
2017-10-21T16:02:03.544Z,97889.13
2017-10-21T16:04:31.056Z,97894.52
2017-10-21T16:06:58.607Z,97893.21
2017-10-21T16:09:26.116Z,97897.71
2017-10-21T16:11:53.775Z,97896.68
2017-10-21T16:14:21.299Z,97903.06
2017-10-21T16:16:48.839Z,97897.71
2017-10-21T16:19:16.519Z,97889.63
2017-10-21T16:21:44.033Z,97888.48
2017-10-21T16:24:11.563Z,97879.73
2017-10-21T16:26:39.095Z,97875.84
2017-10-21T16:29:06.653Z,97880.44
2017-10-21T16:31:34.190Z,97879.89
2017-10-21T16:39:56.197Z,97889.25
2017-10-21T16:42:24.477Z,97889.06
2017-10-21T16:44:52.267Z,97886.56
2017-10-21T16:47:19.772Z,97887.28
2017-10-21T16:49:47.331Z,97896.97
2017-10-21T16:52:15.417Z,97895.88
2017-10-21T16:54:42.939Z,97904.41
2017-10-21T16:57:10.478Z,97917.08
2017-10-21T17:11:10.696Z,97953.66
2017-10-21T17:13:38.248Z,97969.95
2017-10-21T17:16:05.784Z,97979.02
2017-10-21T17:18:43.238Z,97991.16
2017-10-21T17:21:10.767Z,98001.45
2017-10-21T17:23:38.272Z,97999.75
2017-10-21T17:26:05.852Z,98010.18
2017-10-21T17:28:33.407Z,98010.55
2017-10-21T17:31:00.907Z,97996.61
2017-10-21T17:33:28.423Z,97997.86
2017-10-21T17:35:55.968Z,97999.24
2017-10-21T17:38:23.468Z,98018.83
2017-10-21T17:40:50.978Z,98022.20
2017-10-21T17:43:28.815Z,98023.12
2017-10-21T17:45:56.410Z,98029.86
2017-10-21T17:48:23.953Z,98031.64
2017-10-21T17:50:51.466Z,98034.30
2017-10-21T17:53:19.010Z,98045.67
2017-10-21T17:55:46.565Z,98046.98
2017-10-21T17:58:14.093Z,98051.61
2017-10-21T18:00:41.606Z,98050.52
2017-10-21T18:03:09.185Z,98047.52
2017-10-21T18:05:36.692Z,98058.39
2017-10-21T18:08:04.337Z,98054.33
2017-10-21T18:10:31.869Z,98068.81
2017-10-21T18:12:59.407Z,98089.00
2017-10-21T18:15:26.953Z,98115.92
2017-10-21T18:17:54.910Z,98140.45
2017-10-21T18:20:22.423Z,98153.63
2017-10-21T18:22:49.963Z,98143.33
2017-10-21T18:25:17.615Z,98131.41
2017-10-21T18:27:45.152Z,98139.77
2017-10-21T18:30:12.771Z,98133.45
2017-10-21T18:35:36.508Z,98150.00
2017-10-21T18:38:04.040Z,98168.89
2017-10-21T18:40:46.471Z,98167.36
2017-10-21T18:43:13.992Z,98175.70
2017-10-21T18:45:41.542Z,98182.75
2017-10-21T18:48:09.061Z,98189.27
2017-10-21T18:50:36.594Z,98197.63
2017-10-21T18:53:04.120Z,98194.06
2017-10-21T18:55:31.641Z,98203.42
2017-10-21T18:57:59.159Z,98214.42
2017-10-21T19:00:26.704Z,98214.31
2017-10-21T19:02:54.238Z,98233.23
2017-10-21T19:05:21.910Z,98233.19
2017-10-21T19:07:49.431Z,98241.37
2017-10-21T19:10:17.028Z,98243.77
2017-10-21T19:12:44.851Z,98242.55
2017-10-21T19:15:12.365Z,98236.08
2017-10-21T19:17:39.964Z,98234.23
2017-10-21T19:20:07.500Z,98245.80
2017-10-21T19:22:35.040Z,98250.89
2017-10-21T19:25:02.955Z,98249.91
2017-10-21T19:27:30.494Z,98238.28
2017-10-21T19:29:58.019Z,98236.52
2017-10-21T19:32:25.531Z,98234.42
2017-10-21T19:34:53.068Z,98234.23
2017-10-21T19:37:20.687Z,98239.41
2017-10-21T19:39:48.223Z,98229.52
2017-10-21T19:42:15.827Z,98227.21
2017-10-21T19:44:48.563Z,98232.04
2017-10-21T19:47:16.079Z,98223.55
2017-10-21T19:52:43.775Z,98219.08
2017-10-21T19:55:11.325Z,98215.72
2017-10-21T19:57:38.857Z,98218.48
2017-10-21T20:00:06.608Z,98217.49
2017-10-21T20:02:34.155Z,98223.27
2017-10-21T20:05:12.031Z,98232.84
2017-10-21T20:07:39.576Z,98241.61
2017-10-21T20:10:07.453Z,98250.69
2017-10-21T20:12:35.043Z,98249.38
2017-10-21T20:15:02.580Z,98253.80
2017-10-21T20:17:30.084Z,98252.53
2017-10-21T20:19:57.614Z,98245.30
2017-10-21T20:22:25.126Z,98251.39
2017-10-21T20:24:52.659Z,98247.90
2017-10-21T20:42:08.856Z,98234.66
2017-10-21T20:44:36.485Z,98233.56
2017-10-21T20:47:04.059Z,98217.11
2017-10-21T20:49:31.584Z,98217.17
2017-10-21T20:51:59.084Z,98224.56
2017-10-21T20:54:26.593Z,98226.67
2017-10-21T20:56:54.126Z,98244.14
2017-10-21T20:59:21.640Z,98243.52
2017-10-21T21:01:49.180Z,98230.36
2017-10-21T21:04:16.711Z,98226.32
2017-10-21T21:06:44.219Z,98209.40
2017-10-21T21:09:11.974Z,98208.09
2017-10-21T21:11:39.520Z,98215.08
2017-10-21T21:14:07.042Z,98198.94
2017-10-21T21:16:34.568Z,98203.91
2017-10-21T21:19:02.091Z,98201.38
2017-10-21T21:21:29.626Z,98204.63
2017-10-21T21:23:57.160Z,98206.97
2017-10-21T21:26:24.779Z,98202.73
2017-10-21T21:28:52.297Z,98193.36
2017-10-21T21:31:19.829Z,98185.86
2017-10-21T21:33:47.344Z,98184.64
2017-10-21T21:36:25.672Z,98192.85
2017-10-21T21:38:53.197Z,98204.26
2017-10-21T21:41:20.722Z,98210.69
2017-10-21T21:43:48.243Z,98218.65
2017-10-21T21:46:15.780Z,98230.33
2017-10-21T21:48:43.292Z,98217.23
2017-10-21T21:51:10.803Z,98224.55
2017-10-21T21:53:38.327Z,98230.63
2017-10-21T21:56:10.821Z,98208.47
2017-10-21T21:58:38.328Z,98173.58
2017-10-21T22:01:05.849Z,98179.39
2017-10-21T22:03:33.372Z,98192.84
2017-10-21T22:06:11.626Z,98199.98
2017-10-21T22:08:39.145Z,98198.66
2017-10-21T22:11:06.682Z,98176.12
2017-10-21T22:13:34.187Z,98185.33
2017-10-21T22:16:08.813Z,98178.64
2017-10-21T22:18:36.340Z,98165.44
2017-10-21T22:21:03.906Z,98177.73
2017-10-21T22:23:31.415Z,98190.80
2017-10-21T22:28:57.944Z,98201.45
2017-10-21T22:31:25.483Z,98212.88
2017-10-21T22:33:53.007Z,98205.16
2017-10-21T22:36:20.510Z,98219.24
2017-10-21T22:38:48.048Z,98227.58
2017-10-21T22:41:15.561Z,98234.17
2017-10-21T22:43:43.073Z,98231.92
2017-10-21T22:46:10.588Z,98228.26
2017-10-21T22:48:38.097Z,98236.45
2017-10-21T22:51:05.604Z,98242.92
2017-10-21T22:53:33.136Z,98242.11
2017-10-21T22:56:00.655Z,98235.93
2017-10-21T22:58:28.188Z,98239.22
2017-10-21T23:00:55.702Z,98240.60
2017-10-21T23:03:23.215Z,98245.63
2017-10-21T23:05:50.721Z,98240.56
2017-10-21T23:08:18.270Z,98230.56
2017-10-21T23:10:45.813Z,98230.73
2017-10-21T23:13:13.320Z,98231.02
2017-10-21T23:15:40.828Z,98237.69
2017-10-21T23:18:08.337Z,98250.95
2017-10-21T23:20:35.852Z,98248.08
2017-10-21T23:23:03.346Z,98250.55
2017-10-21T23:25:30.848Z,98258.45
2017-10-21T23:27:58.352Z,98267.30
2017-10-21T23:30:25.877Z,98262.64
2017-10-21T23:32:53.464Z,98258.50
2017-10-21T23:35:20.976Z,98258.81
2017-10-21T23:37:48.512Z,98263.83
2017-10-21T23:40:16.029Z,98263.18
2017-10-21T23:42:43.540Z,98260.22
2017-10-21T23:45:11.075Z,98261.80
2017-10-21T23:47:38.585Z,98261.37
2017-10-21T23:50:06.097Z,98246.16
2017-10-21T23:52:33.642Z,98256.21
2017-10-21T23:55:01.171Z,98261.22
2017-10-21T23:57:28.679Z,98254.50
2017-10-21T23:59:56.173Z,98251.98
